Aérodrome :
LOGIN :

S'inscrire | Disclaimer

   EN    FR    IT 

 










Légende :    VFR   VFR Marginal   IFR   IFR Intensif   IFR Très Intensif
Visi : 
Plafond : 
>= 8 km
>= 3000ft
5 à 8 km
1000 à 3000 ft
1500m à 5 km
500 à 1000 ft
800 à 1500m
200 à 500 ft
< 800m
< 200 ft
Symboles :   Orages  Brouillard  Fortes neiges  Fortes précipitations  Vent > 20 kt
SIGMETs :   Divers  Orages  Givrage  Turbulence  Onde Orograph.  Cendres Volcan.






- Altitude de l'aérodrome : 202 ft
- Code IATA : LGW


EGKK - London Gatwick

DERNIER METAR :
  • 180420Z VRB01KT CAVOK M00/M02 Q1025

METARs EXPIRÉS :
  • 180350Z 23001KT CAVOK M00/M02 Q1025
  • 180320Z VRB01KT CAVOK 00/M02 Q1025
  • 180250Z 26002KT CAVOK 01/M02 Q1025
  • 180220Z 09001KT CAVOK 01/M01 Q1025
  • 180150Z 26001KT CAVOK 01/M02 Q1026

TAF TAF EGKK
Valide du 18 à 00h jusqu'au 19 à 06h UTC


172253Z 1800/1906 09004KT CAVOK
PROB30 1803/1807 9000
PROB30 1900/1906 8000



MET'MAP, la Météo Aéronautique d'un coup d'oeil ! - Copyright ORBIFLY Décembre 2007 - Disclaimer

ORBIFLY MET'MAP TEAM :

Programmation & Développement : Alexandra Zaïnal
Sur une idée originale de : Baudouin d'Aumeries
Assistance à la programmation : Marc-Olivier Méhu
Soutien technique & logistique : Manuel Goepfert

Contact : metmap@orbifly.com




SOURCES & CREDITS :

   NOAA